sensor_id;sensor_type;location;lat;lon;timestamp;temperature;humidity
13835;DHT22;6988;52.614;13.500;2024-02-23T00:03:17;10.40;99.90
13835;DHT22;6988;52.614;13.500;2024-02-23T00:08:09;10.50;99.90
13835;DHT22;6988;52.614;13.500;2024-02-23T00:13:01;10.50;99.90
13835;DHT22;6988;52.614;13.500;2024-02-23T00:17:53;10.50;99.90
13835;DHT22;6988;52.614;13.500;2024-02-23T00:22:47;10.50;99.90
13835;DHT22;6988;52.614;13.500;2024-02-23T00:27:39;10.50;99.90
13835;DHT22;6988;52.614;13.500;2024-02-23T00:32:32;10.50;99.90
13835;DHT22;6988;52.614;13.500;2024-02-23T00:37:24;10.60;99.90
13835;DHT22;6988;52.614;13.500;2024-02-23T00:42:18;10.60;99.90
13835;DHT22;6988;52.614;13.500;2024-02-23T00:47:11;10.70;99.90
13835;DHT22;6988;52.614;13.500;2024-02-23T00:52:03;10.70;99.90
13835;DHT22;6988;52.614;13.500;2024-02-23T00:56:55;10.70;99.90
13835;DHT22;6988;52.614;13.500;2024-02-23T01:01:48;10.60;99.90
13835;DHT22;6988;52.614;13.500;2024-02-23T01:06:40;10.60;99.90
13835;DHT22;6988;52.614;13.500;2024-02-23T01:11:32;10.50;99.90
13835;DHT22;6988;52.614;13.500;2024-02-23T01:16:25;10.50;99.90
13835;DHT22;6988;52.614;13.500;2024-02-23T01:21:18;10.50;99.90
13835;DHT22;6988;52.614;13.500;2024-02-23T01:26:10;10.50;99.90
13835;DHT22;6988;52.614;13.500;2024-02-23T01:31:03;10.60;99.90
13835;DHT22;6988;52.614;13.500;2024-02-23T01:35:58;10.60;99.90
13835;DHT22;6988;52.614;13.500;2024-02-23T01:40:51;10.70;99.90
13835;DHT22;6988;52.614;13.500;2024-02-23T01:45:44;10.80;99.90
13835;DHT22;6988;52.614;13.500;2024-02-23T01:50:38;10.80;99.90
13835;DHT22;6988;52.614;13.500;2024-02-23T01:55:31;10.90;99.90
13835;DHT22;6988;52.614;13.500;2024-02-23T02:00:25;11.00;99.90
13835;DHT22;6988;52.614;13.500;2024-02-23T02:05:19;11.00;99.90
13835;DHT22;6988;52.614;13.500;2024-02-23T02:10:12;11.10;99.90
13835;DHT22;6988;52.614;13.500;2024-02-23T02:15:06;11.20;99.90
13835;DHT22;6988;52.614;13.500;2024-02-23T02:20:02;11.20;99.90
13835;DHT22;6988;52.614;13.500;2024-02-23T02:24:55;11.20;99.90
13835;DHT22;6988;52.614;13.500;2024-02-23T02:29:50;11.20;99.90
13835;DHT22;6988;52.614;13.500;2024-02-23T02:34:42;11.20;99.90
13835;DHT22;6988;52.614;13.500;2024-02-23T02:39:36;11.10;99.90
13835;DHT22;6988;52.614;13.500;2024-02-23T02:44:28;11.10;99.90
13835;DHT22;6988;52.614;13.500;2024-02-23T02:49:21;11.00;99.90
13835;DHT22;6988;52.614;13.500;2024-02-23T02:54:13;10.90;99.90
13835;DHT22;6988;52.614;13.500;2024-02-23T02:59:06;10.70;98.00
13835;DHT22;6988;52.614;13.500;2024-02-23T03:03:58;10.60;96.20
13835;DHT22;6988;52.614;13.500;2024-02-23T03:08:50;10.50;96.40
13835;DHT22;6988;52.614;13.500;2024-02-23T03:13:42;10.40;99.90
13835;DHT22;6988;52.614;13.500;2024-02-23T03:18:36;10.30;98.80
13835;DHT22;6988;52.614;13.500;2024-02-23T03:23:28;10.20;99.90
13835;DHT22;6988;52.614;13.500;2024-02-23T03:28:20;10.10;99.90
13835;DHT22;6988;52.614;13.500;2024-02-23T03:33:12;10.00;99.90
13835;DHT22;6988;52.614;13.500;2024-02-23T03:38:05;9.90;99.90
13835;DHT22;6988;52.614;13.500;2024-02-23T03:42:58;9.90;99.90
13835;DHT22;6988;52.614;13.500;2024-02-23T03:47:50;9.80;96.40
13835;DHT22;6988;52.614;13.500;2024-02-23T03:52:42;9.70;99.90
13835;DHT22;6988;52.614;13.500;2024-02-23T03:57:36;9.70;94.70
13835;DHT22;6988;52.614;13.500;2024-02-23T04:02:29;9.60;95.60
13835;DHT22;6988;52.614;13.500;2024-02-23T04:07:21;9.70;86.80
13835;DHT22;6988;52.614;13.500;2024-02-23T04:12:13;9.70;90.80
13835;DHT22;6988;52.614;13.500;2024-02-23T04:17:06;9.60;86.70
13835;DHT22;6988;52.614;13.500;2024-02-23T04:21:58;9.60;90.70
13835;DHT22;6988;52.614;13.500;2024-02-23T04:26:51;9.60;91.00
13835;DHT22;6988;52.614;13.500;2024-02-23T04:31:43;9.50;83.60
13835;DHT22;6988;52.614;13.500;2024-02-23T04:36:36;9.50;88.60
13835;DHT22;6988;52.614;13.500;2024-02-23T04:41:28;9.50;87.30
13835;DHT22;6988;52.614;13.500;2024-02-23T04:46:20;9.40;74.40
13835;DHT22;6988;52.614;13.500;2024-02-23T04:51:12;9.40;66.40
13835;DHT22;6988;52.614;13.500;2024-02-23T04:56:06;9.40;72.70
13835;DHT22;6988;52.614;13.500;2024-02-23T05:00:58;9.30;82.20
13835;DHT22;6988;52.614;13.500;2024-02-23T05:05:50;9.20;70.20
13835;DHT22;6988;52.614;13.500;2024-02-23T05:10:44;9.20;70.00
13835;DHT22;6988;52.614;13.500;2024-02-23T05:15:38;9.10;81.60
13835;DHT22;6988;52.614;13.500;2024-02-23T05:20:31;9.00;78.60
13835;DHT22;6988;52.614;13.500;2024-02-23T05:25:23;9.00;63.80
13835;DHT22;6988;52.614;13.500;2024-02-23T05:30:16;8.80;40.80
13835;DHT22;6988;52.614;13.500;2024-02-23T05:35:09;8.80;52.80
13835;DHT22;6988;52.614;13.500;2024-02-23T05:40:04;8.60;64.10
13835;DHT22;6988;52.614;13.500;2024-02-23T05:45:00;8.50;67.50
13835;DHT22;6988;52.614;13.500;2024-02-23T05:49:55;8.30;73.80
13835;DHT22;6988;52.614;13.500;2024-02-23T05:54:48;8.30;82.30
13835;DHT22;6988;52.614;13.500;2024-02-23T05:59:40;8.20;87.80
13835;DHT22;6988;52.614;13.500;2024-02-23T06:04:32;8.10;93.90
13835;DHT22;6988;52.614;13.500;2024-02-23T06:09:24;8.00;96.20
13835;DHT22;6988;52.614;13.500;2024-02-23T06:14:18;7.90;99.30
13835;DHT22;6988;52.614;13.500;2024-02-23T06:19:10;7.90;99.90
13835;DHT22;6988;52.614;13.500;2024-02-23T06:24:02;7.80;99.90
13835;DHT22;6988;52.614;13.500;2024-02-23T06:28:54;7.80;99.90
13835;DHT22;6988;52.614;13.500;2024-02-23T06:33:48;7.70;99.90
13835;DHT22;6988;52.614;13.500;2024-02-23T06:38:41;7.70;99.90
13835;DHT22;6988;52.614;13.500;2024-02-23T06:43:33;7.60;99.90
13835;DHT22;6988;52.614;13.500;2024-02-23T06:48:25;7.60;99.90
13835;DHT22;6988;52.614;13.500;2024-02-23T06:53:18;7.60;99.90
13835;DHT22;6988;52.614;13.500;2024-02-23T06:58:10;7.60;99.90
13835;DHT22;6988;52.614;13.500;2024-02-23T07:03:04;7.60;99.90
13835;DHT22;6988;52.614;13.500;2024-02-23T07:07:56;7.80;99.90
13835;DHT22;6988;52.614;13.500;2024-02-23T07:12:49;7.90;99.90
13835;DHT22;6988;52.614;13.500;2024-02-23T07:17:44;8.00;99.90
13835;DHT22;6988;52.614;13.500;2024-02-23T07:22:36;8.00;99.90
13835;DHT22;6988;52.614;13.500;2024-02-23T07:27:29;8.00;99.90
13835;DHT22;6988;52.614;13.500;2024-02-23T07:32:22;8.00;99.90
13835;DHT22;6988;52.614;13.500;2024-02-23T07:37:14;8.10;96.50
13835;DHT22;6988;52.614;13.500;2024-02-23T07:42:06;8.10;99.90
13835;DHT22;6988;52.614;13.500;2024-02-23T07:47:00;8.00;99.90
13835;DHT22;6988;52.614;13.500;2024-02-23T07:51:54;8.00;94.50
13835;DHT22;6988;52.614;13.500;2024-02-23T07:56:46;7.90;97.80
13835;DHT22;6988;52.614;13.500;2024-02-23T08:01:38;7.90;92.30
13835;DHT22;6988;52.614;13.500;2024-02-23T08:06:30;7.90;88.10
13835;DHT22;6988;52.614;13.500;2024-02-23T08:11:23;7.90;96.00
13835;DHT22;6988;52.614;13.500;2024-02-23T08:16:16;8.10;90.60
13835;DHT22;6988;52.614;13.500;2024-02-23T08:21:07;8.60;73.60
13835;DHT22;6988;52.614;13.500;2024-02-23T08:26:01;8.90;70.90
13835;DHT22;6988;52.614;13.500;2024-02-23T08:30:54;9.30;56.10
13835;DHT22;6988;52.614;13.500;2024-02-23T08:35:46;9.50;45.20
13835;DHT22;6988;52.614;13.500;2024-02-23T08:40:39;9.30;50.00
13835;DHT22;6988;52.614;13.500;2024-02-23T08:45:30;9.20;52.90
13835;DHT22;6988;52.614;13.500;2024-02-23T08:50:24;9.00;63.50
13835;DHT22;6988;52.614;13.500;2024-02-23T08:55:16;8.90;69.10
13835;DHT22;6988;52.614;13.500;2024-02-23T09:00:09;8.90;70.70
13835;DHT22;6988;52.614;13.500;2024-02-23T09:05:02;8.80;60.00
13835;DHT22;6988;52.614;13.500;2024-02-23T09:09:56;8.90;62.40
13835;DHT22;6988;52.614;13.500;2024-02-23T09:14:48;9.10;74.50
13835;DHT22;6988;52.614;13.500;2024-02-23T09:19:40;9.30;51.50
13835;DHT22;6988;52.614;13.500;2024-02-23T09:24:32;9.40;50.70
13835;DHT22;6988;52.614;13.500;2024-02-23T09:29:25;9.50;40.20
13835;DHT22;6988;52.614;13.500;2024-02-23T09:34:17;9.60;30.30
13835;DHT22;6988;52.614;13.500;2024-02-23T09:39:09;9.70;35.60
13835;DHT22;6988;52.614;13.500;2024-02-23T09:44:01;9.60;27.90
13835;DHT22;6988;52.614;13.500;2024-02-23T09:48:55;9.80;28.30
13835;DHT22;6988;52.614;13.500;2024-02-23T09:53:49;9.70;6.80
13835;DHT22;6988;52.614;13.500;2024-02-23T09:58:42;9.80;27.90
13835;DHT22;6988;52.614;13.500;2024-02-23T10:03:35;9.90;2.80
13835;DHT22;6988;52.614;13.500;2024-02-23T10:08:29;9.90;1.00
13835;DHT22;6988;52.614;13.500;2024-02-23T10:13:22;9.90;1.00
13835;DHT22;6988;52.614;13.500;2024-02-23T10:18:16;10.00;1.00
13835;DHT22;6988;52.614;13.500;2024-02-23T10:23:08;9.90;1.00
13835;DHT22;6988;52.614;13.500;2024-02-23T10:28:02;9.80;1.00
13835;DHT22;6988;52.614;13.500;2024-02-23T10:32:56;9.90;8.70
13835;DHT22;6988;52.614;13.500;2024-02-23T10:37:50;9.70;6.10
13835;DHT22;6988;52.614;13.500;2024-02-23T10:42:44;9.70;15.80
13835;DHT22;6988;52.614;13.500;2024-02-23T10:47:40;9.80;13.00
13835;DHT22;6988;52.614;13.500;2024-02-23T10:52:33;9.90;17.10
13835;DHT22;6988;52.614;13.500;2024-02-23T10:57:27;9.90;13.60
13835;DHT22;6988;52.614;13.500;2024-02-23T11:02:20;9.90;9.50
13835;DHT22;6988;52.614;13.500;2024-02-23T11:07:19;9.80;11.00
13835;DHT22;6988;52.614;13.500;2024-02-23T11:12:11;9.80;7.20
13835;DHT22;6988;52.614;13.500;2024-02-23T11:17:17;9.70;1.00
13835;DHT22;6988;52.614;13.500;2024-02-23T11:22:10;9.90;1.00
13835;DHT22;6988;52.614;13.500;2024-02-23T11:27:04;10.00;1.00
13835;DHT22;6988;52.614;13.500;2024-02-23T11:32:01;10.30;1.00
13835;DHT22;6988;52.614;13.500;2024-02-23T11:36:54;10.30;1.00
13835;DHT22;6988;52.614;13.500;2024-02-23T11:41:48;10.40;1.00
13835;DHT22;6988;52.614;13.500;2024-02-23T11:46:42;10.50;4.00
13835;DHT22;6988;52.614;13.500;2024-02-23T11:51:35;10.50;3.60
13835;DHT22;6988;52.614;13.500;2024-02-23T11:56:29;10.60;2.10
13835;DHT22;6988;52.614;13.500;2024-02-23T12:01:21;10.60;1.00
13835;DHT22;6988;52.614;13.500;2024-02-23T12:06:15;10.50;1.00
13835;DHT22;6988;52.614;13.500;2024-02-23T12:11:08;10.50;1.70
13835;DHT22;6988;52.614;13.500;2024-02-23T12:16:01;10.70;10.00
13835;DHT22;6988;52.614;13.500;2024-02-23T12:20:54;10.70;8.10
13835;DHT22;6988;52.614;13.500;2024-02-23T12:25:56;10.70;1.00
13835;DHT22;6988;52.614;13.500;2024-02-23T12:30:58;10.80;1.00
13835;DHT22;6988;52.614;13.500;2024-02-23T12:35:51;10.90;1.00
13835;DHT22;6988;52.614;13.500;2024-02-23T12:40:45;10.90;1.00
13835;DHT22;6988;52.614;13.500;2024-02-23T12:45:38;10.90;1.00
13835;DHT22;6988;52.614;13.500;2024-02-23T12:50:30;10.90;1.00
13835;DHT22;6988;52.614;13.500;2024-02-23T12:55:23;10.80;1.00
13835;DHT22;6988;52.614;13.500;2024-02-23T13:00:15;10.70;1.00
13835;DHT22;6988;52.614;13.500;2024-02-23T13:05:09;10.60;1.00
13835;DHT22;6988;52.614;13.500;2024-02-23T13:10:01;10.50;1.00
13835;DHT22;6988;52.614;13.500;2024-02-23T13:14:53;10.60;1.00
13835;DHT22;6988;52.614;13.500;2024-02-23T13:19:45;10.50;4.70
13835;DHT22;6988;52.614;13.500;2024-02-23T13:24:38;10.50;1.00
13835;DHT22;6988;52.614;13.500;2024-02-23T13:29:31;10.50;1.00
13835;DHT22;6988;52.614;13.500;2024-02-23T13:34:22;10.30;1.00
13835;DHT22;6988;52.614;13.500;2024-02-23T13:39:14;10.20;1.00
13835;DHT22;6988;52.614;13.500;2024-02-23T13:44:07;10.30;1.00
13835;DHT22;6988;52.614;13.500;2024-02-23T13:49:03;10.30;8.20
13835;DHT22;6988;52.614;13.500;2024-02-23T13:53:57;10.20;11.80
13835;DHT22;6988;52.614;13.500;2024-02-23T13:58:49;10.30;4.30
13835;DHT22;6988;52.614;13.500;2024-02-23T14:03:42;10.20;1.00
13835;DHT22;6988;52.614;13.500;2024-02-23T14:08:34;10.20;11.20
13835;DHT22;6988;52.614;13.500;2024-02-23T14:13:27;10.10;13.00
13835;DHT22;6988;52.614;13.500;2024-02-23T14:18:19;10.10;1.00
13835;DHT22;6988;52.614;13.500;2024-02-23T14:23:12;10.00;18.40
13835;DHT22;6988;52.614;13.500;2024-02-23T14:28:05;10.00;12.30
13835;DHT22;6988;52.614;13.500;2024-02-23T14:32:57;10.00;5.40
13835;DHT22;6988;52.614;13.500;2024-02-23T14:37:49;10.10;10.20
13835;DHT22;6988;52.614;13.500;2024-02-23T14:42:42;9.90;20.60
13835;DHT22;6988;52.614;13.500;2024-02-23T14:47:34;9.80;12.10
13835;DHT22;6988;52.614;13.500;2024-02-23T14:52:26;9.70;3.60
13835;DHT22;6988;52.614;13.500;2024-02-23T14:57:18;9.60;1.00
13835;DHT22;6988;52.614;13.500;2024-02-23T15:02:18;9.50;4.20
13835;DHT22;6988;52.614;13.500;2024-02-23T15:07:11;9.30;1.00
13835;DHT22;6988;52.614;13.500;2024-02-23T15:12:04;9.20;1.80
13835;DHT22;6988;52.614;13.500;2024-02-23T15:16:56;9.20;6.70
13835;DHT22;6988;52.614;13.500;2024-02-23T15:21:50;9.10;9.40
13835;DHT22;6988;52.614;13.500;2024-02-23T15:26:43;9.10;12.90
13835;DHT22;6988;52.614;13.500;2024-02-23T15:31:35;9.10;15.20
13835;DHT22;6988;52.614;13.500;2024-02-23T15:36:28;9.10;22.10
13835;DHT22;6988;52.614;13.500;2024-02-23T15:41:21;9.00;26.80
13835;DHT22;6988;52.614;13.500;2024-02-23T15:46:13;9.00;29.60
13835;DHT22;6988;52.614;13.500;2024-02-23T15:51:05;9.00;28.50
13835;DHT22;6988;52.614;13.500;2024-02-23T15:55:57;8.90;28.40
13835;DHT22;6988;52.614;13.500;2024-02-23T16:00:50;8.90;38.10
13835;DHT22;6988;52.614;13.500;2024-02-23T16:05:44;8.80;38.40
13835;DHT22;6988;52.614;13.500;2024-02-23T16:10:35;8.80;39.50
13835;DHT22;6988;52.614;13.500;2024-02-23T16:15:27;8.70;49.90
13835;DHT22;6988;52.614;13.500;2024-02-23T16:20:20;8.70;49.40
13835;DHT22;6988;52.614;13.500;2024-02-23T16:25:12;8.60;55.30
13835;DHT22;6988;52.614;13.500;2024-02-23T16:30:06;8.40;57.40
13835;DHT22;6988;52.614;13.500;2024-02-23T16:34:59;8.40;63.90
13835;DHT22;6988;52.614;13.500;2024-02-23T16:39:53;8.30;78.80
13835;DHT22;6988;52.614;13.500;2024-02-23T16:44:45;8.20;75.90
13835;DHT22;6988;52.614;13.500;2024-02-23T16:49:37;8.20;78.60
13835;DHT22;6988;52.614;13.500;2024-02-23T16:54:29;8.10;89.00
13835;DHT22;6988;52.614;13.500;2024-02-23T16:59:23;8.00;92.00
13835;DHT22;6988;52.614;13.500;2024-02-23T17:04:15;7.90;91.40
13835;DHT22;6988;52.614;13.500;2024-02-23T17:09:06;7.90;87.30
13835;DHT22;6988;52.614;13.500;2024-02-23T17:14:00;7.90;90.20
13835;DHT22;6988;52.614;13.500;2024-02-23T17:18:53;7.90;89.90
13835;DHT22;6988;52.614;13.500;2024-02-23T17:23:46;7.80;94.40
13835;DHT22;6988;52.614;13.500;2024-02-23T17:28:38;7.70;98.90
13835;DHT22;6988;52.614;13.500;2024-02-23T17:33:32;7.50;99.90
13835;DHT22;6988;52.614;13.500;2024-02-23T17:38:25;7.40;99.90
13835;DHT22;6988;52.614;13.500;2024-02-23T17:43:16;7.10;99.90
13835;DHT22;6988;52.614;13.500;2024-02-23T17:48:08;6.90;99.90
13835;DHT22;6988;52.614;13.500;2024-02-23T17:53:00;6.80;99.90
13835;DHT22;6988;52.614;13.500;2024-02-23T17:57:53;6.80;99.90
13835;DHT22;6988;52.614;13.500;2024-02-23T18:02:45;6.80;99.90
13835;DHT22;6988;52.614;13.500;2024-02-23T18:07:38;6.90;99.90
13835;DHT22;6988;52.614;13.500;2024-02-23T18:12:30;6.80;99.90
13835;DHT22;6988;52.614;13.500;2024-02-23T18:17:24;6.70;99.90
13835;DHT22;6988;52.614;13.500;2024-02-23T18:22:16;6.70;99.90
13835;DHT22;6988;52.614;13.500;2024-02-23T18:27:08;6.60;99.90
13835;DHT22;6988;52.614;13.500;2024-02-23T18:32:00;6.40;99.90
13835;DHT22;6988;52.614;13.500;2024-02-23T18:36:54;6.20;99.90
13835;DHT22;6988;52.614;13.500;2024-02-23T18:41:45;6.10;99.90
13835;DHT22;6988;52.614;13.500;2024-02-23T18:46:38;5.90;99.90
13835;DHT22;6988;52.614;13.500;2024-02-23T18:51:30;5.80;99.90
13835;DHT22;6988;52.614;13.500;2024-02-23T18:56:23;5.80;99.90
13835;DHT22;6988;52.614;13.500;2024-02-23T19:01:15;5.80;99.90
13835;DHT22;6988;52.614;13.500;2024-02-23T19:06:07;5.80;99.90
13835;DHT22;6988;52.614;13.500;2024-02-23T19:10:59;5.90;99.90
13835;DHT22;6988;52.614;13.500;2024-02-23T19:15:53;5.90;99.90
13835;DHT22;6988;52.614;13.500;2024-02-23T19:20:44;6.00;99.90
13835;DHT22;6988;52.614;13.500;2024-02-23T19:25:36;5.90;99.90
13835;DHT22;6988;52.614;13.500;2024-02-23T19:30:28;5.90;99.90
13835;DHT22;6988;52.614;13.500;2024-02-23T19:35:21;5.80;99.90
13835;DHT22;6988;52.614;13.500;2024-02-23T19:40:13;5.70;99.90
13835;DHT22;6988;52.614;13.500;2024-02-23T19:45:11;5.70;99.90
13835;DHT22;6988;52.614;13.500;2024-02-23T19:50:03;5.60;99.90
13835;DHT22;6988;52.614;13.500;2024-02-23T19:54:57;5.70;99.90
13835;DHT22;6988;52.614;13.500;2024-02-23T19:59:48;5.70;99.90
13835;DHT22;6988;52.614;13.500;2024-02-23T20:04:40;5.70;99.90
13835;DHT22;6988;52.614;13.500;2024-02-23T20:09:33;5.70;99.90
13835;DHT22;6988;52.614;13.500;2024-02-23T20:14:26;5.70;99.90
13835;DHT22;6988;52.614;13.500;2024-02-23T20:19:18;5.60;99.90
13835;DHT22;6988;52.614;13.500;2024-02-23T20:24:10;5.60;99.90
13835;DHT22;6988;52.614;13.500;2024-02-23T20:29:02;5.60;99.90
13835;DHT22;6988;52.614;13.500;2024-02-23T20:33:55;5.80;99.90
13835;DHT22;6988;52.614;13.500;2024-02-23T20:38:47;5.50;99.90
13835;DHT22;6988;52.614;13.500;2024-02-23T20:43:39;5.40;99.90
13835;DHT22;6988;52.614;13.500;2024-02-23T20:48:30;5.30;99.90
13835;DHT22;6988;52.614;13.500;2024-02-23T20:53:23;5.20;99.90
13835;DHT22;6988;52.614;13.500;2024-02-23T20:58:15;5.20;99.90
13835;DHT22;6988;52.614;13.500;2024-02-23T21:03:07;5.20;99.90
13835;DHT22;6988;52.614;13.500;2024-02-23T21:07:59;5.10;99.90
13835;DHT22;6988;52.614;13.500;2024-02-23T21:12:52;5.10;99.90
13835;DHT22;6988;52.614;13.500;2024-02-23T21:17:45;5.00;99.90
13835;DHT22;6988;52.614;13.500;2024-02-23T21:22:38;5.00;99.90
13835;DHT22;6988;52.614;13.500;2024-02-23T21:27:30;4.90;99.90
13835;DHT22;6988;52.614;13.500;2024-02-23T21:32:23;4.80;99.90
13835;DHT22;6988;52.614;13.500;2024-02-23T21:37:15;4.70;99.90
13835;DHT22;6988;52.614;13.500;2024-02-23T21:42:08;4.60;99.90
13835;DHT22;6988;52.614;13.500;2024-02-23T21:47:00;4.60;99.90
13835;DHT22;6988;52.614;13.500;2024-02-23T21:51:54;4.50;99.90
13835;DHT22;6988;52.614;13.500;2024-02-23T21:56:53;4.40;99.90
13835;DHT22;6988;52.614;13.500;2024-02-23T22:01:45;4.40;99.90
13835;DHT22;6988;52.614;13.500;2024-02-23T22:06:37;4.30;99.90
13835;DHT22;6988;52.614;13.500;2024-02-23T22:11:30;4.30;99.90
13835;DHT22;6988;52.614;13.500;2024-02-23T22:16:22;4.30;99.90
13835;DHT22;6988;52.614;13.500;2024-02-23T22:21:14;4.30;99.90
13835;DHT22;6988;52.614;13.500;2024-02-23T22:26:06;4.30;99.90
13835;DHT22;6988;52.614;13.500;2024-02-23T22:30:59;4.20;99.90
13835;DHT22;6988;52.614;13.500;2024-02-23T22:35:51;4.20;99.90
13835;DHT22;6988;52.614;13.500;2024-02-23T22:40:43;4.20;99.90
13835;DHT22;6988;52.614;13.500;2024-02-23T22:45:35;4.10;99.90
13835;DHT22;6988;52.614;13.500;2024-02-23T23:03:55;3.80;99.90
13835;DHT22;6988;52.614;13.500;2024-02-23T23:08:47;3.70;99.90
13835;DHT22;6988;52.614;13.500;2024-02-23T23:13:39;3.60;99.90
13835;DHT22;6988;52.614;13.500;2024-02-23T23:18:32;3.50;99.90
13835;DHT22;6988;52.614;13.500;2024-02-23T23:23:25;3.50;99.90
13835;DHT22;6988;52.614;13.500;2024-02-23T23:28:17;3.50;99.90
13835;DHT22;6988;52.614;13.500;2024-02-23T23:33:09;3.50;99.90
13835;DHT22;6988;52.614;13.500;2024-02-23T23:38:03;3.40;99.90
13835;DHT22;6988;52.614;13.500;2024-02-23T23:42:56;3.30;99.90
13835;DHT22;6988;52.614;13.500;2024-02-23T23:47:48;3.20;99.90
13835;DHT22;6988;52.614;13.500;2024-02-23T23:52:40;3.30;99.90
13835;DHT22;6988;52.614;13.500;2024-02-23T23:57:33;3.20;99.90
